Time;durP1;ratioP1;P1;durP2;ratioP2;P2;SDS_P1;SDS_P2;PMS_P1;PMS_P2;Temp;Humidity;BMP_temperature;BMP_pressure;BME280_temperature;BME280_humidity;BME280_pressure;Samples;Min_cycle;Max_cycle;Signal;HPM_P1;HPM_P2
2022/04/06 00:00:52;;;;;;;16.27;7.97;;;15.30;99.90;;;;;;5040684;28;20329;-73
2022/04/06 00:03:18;;;;;;;26.73;8.70;;;14.50;99.90;;;;;;5023820;28;20060;-73
2022/04/06 00:05:44;;;;;;;17.35;8.43;;;14.40;99.90;;;;;;5056730;28;20103;-74
2022/04/06 00:08:10;;;;;;;18.25;8.32;;;15.50;99.90;;;;;;5039571;28;20108;-73
2022/04/06 00:10:36;;;;;;;21.50;8.65;;;16.80;99.90;;;;;;5073582;28;20042;-72
2022/04/06 00:13:02;;;;;;;18.33;9.30;;;16.60;99.90;;;;;;5038167;28;20033;-73
2022/04/06 00:15:27;;;;;;;18.42;8.48;;;14.40;99.90;;;;;;5041743;28;20056;-74
2022/04/06 00:17:53;;;;;;;22.55;9.48;;;16.40;99.90;;;;;;5075660;28;20028;-73
2022/04/06 00:20:19;;;;;;;23.02;9.05;;;15.10;99.90;;;;;;5054530;28;20064;-72
2022/04/06 00:22:45;;;;;;;27.25;10.65;;;14.90;99.90;;;;;;5060254;28;20108;-73
2022/04/06 00:25:10;;;;;;;26.73;10.48;;;16.40;99.90;;;;;;5047551;28;20324;-74
2022/04/06 00:27:36;;;;;;;23.27;10.38;;;14.90;99.90;;;;;;5073494;28;20328;-76
2022/04/06 00:30:04;;;;;;;23.88;11.18;;;14.40;99.90;;;;;;5034810;28;20200;-74
2022/04/06 00:32:30;;;;;;;23.05;10.43;;;15.60;99.90;;;;;;5026793;28;20094;-74
2022/04/06 00:37:40;;;;;;;20.75;9.95;;;15.80;99.90;;;;;;5058782;28;20291;-72
2022/04/06 00:40:08;;;;;;;25.40;10.25;;;17.00;99.90;;;;;;5071381;28;20025;-75
2022/04/06 00:42:34;;;;;;;20.23;10.70;;;17.30;99.90;;;;;;5041879;28;20037;-73
2022/04/06 00:45:00;;;;;;;26.70;10.68;;;15.60;99.90;;;;;;5041689;28;20343;-74
2022/04/06 00:47:25;;;;;;;22.70;11.45;;;16.10;99.90;;;;;;5073743;28;20072;-74
2022/04/06 00:49:51;;;;;;;25.67;11.43;;;17.10;99.90;;;;;;5040393;28;20319;-75
2022/04/06 00:52:19;;;;;;;26.88;11.93;;;18.00;99.90;;;;;;5021825;28;20238;-74
2022/04/06 00:54:46;;;;;;;36.70;14.30;;;18.20;99.90;;;;;;5025236;28;20044;-74
2022/04/06 00:57:13;;;;;;;21.90;11.40;;;18.20;99.90;;;;;;5041742;28;20374;-74
2022/04/06 00:59:41;;;;;;;26.60;11.35;;;14.60;99.90;;;;;;5030731;28;20266;-72
2022/04/06 01:02:07;;;;;;;24.48;12.23;;;17.00;99.90;;;;;;5040322;28;20055;-75
2022/04/06 01:04:33;;;;;;;24.85;11.23;;;17.20;99.90;;;;;;5041118;28;20060;-74
2022/04/06 01:06:59;;;;;;;26.02;11.48;;;18.20;99.90;;;;;;5041095;28;20369;-74
2022/04/06 01:09:27;;;;;;;26.10;12.25;;;15.30;99.90;;;;;;5045509;28;20028;-75
2022/04/06 01:11:53;;;;;;;30.60;11.82;;;14.30;99.90;;;;;;5039595;28;20052;-73
2022/04/06 01:14:19;;;;;;;29.95;13.02;;;16.50;99.90;;;;;;5061363;28;20033;-73
2022/04/06 01:17:03;;;;;;;28.90;13.23;;;17.10;99.90;;;;;;5013964;28;20333;-72
2022/04/06 01:19:34;;;;;;;30.30;11.65;;;15.30;99.90;;;;;;5039764;28;20033;-74
2022/04/06 01:22:00;;;;;;;30.67;14.05;;;16.80;99.90;;;;;;5049869;28;20056;-73
2022/04/06 01:24:27;;;;;;;27.80;13.15;;;17.20;99.90;;;;;;5038213;28;20106;-72
2022/04/06 01:26:54;;;;;;;39.65;14.05;;;17.40;99.90;;;;;;5035206;28;20102;-74
2022/04/06 01:29:19;;;;;;;32.78;14.13;;;17.50;99.90;;;;;;5059591;28;20072;-74
2022/04/06 01:31:46;;;;;;;31.80;12.95;;;15.70;99.90;;;;;;5021269;28;20044;-75
2022/04/06 01:34:11;;;;;;;32.20;12.30;;;16.40;99.90;;;;;;5038344;28;20175;-73
2022/04/06 01:36:37;;;;;;;28.95;13.20;;;14.70;99.90;;;;;;5034580;28;20041;-73
2022/04/06 01:39:03;;;;;;;28.38;12.45;;;17.20;99.90;;;;;;5042713;28;20113;-74
2022/04/06 01:41:33;;;;;;;25.77;11.90;;;16.60;99.90;;;;;;5040783;28;20029;-73
2022/04/06 01:43:59;;;;;;;31.83;12.23;;;15.30;99.90;;;;;;5055294;28;20029;-73
2022/04/06 01:46:25;;;;;;;29.75;11.88;;;17.30;99.90;;;;;;5052891;28;20032;-75
2022/04/06 01:52:20;;;;;;;28.48;12.35;;;14.20;99.90;;;;;;5037603;28;20040;-74
2022/04/06 01:54:26;;;;;;;29.95;12.07;;;14.90;99.90;;;;;;5039198;28;20037;-75
2022/04/06 01:56:52;;;;;;;25.63;11.60;;;16.80;99.90;;;;;;5026733;28;20156;-76
2022/04/06 01:59:18;;;;;;;24.75;11.35;;;14.30;99.90;;;;;;5038966;28;20029;-75
2022/04/06 02:01:51;;;;;;;23.25;10.68;;;16.90;99.90;;;;;;5038337;28;20263;-73
2022/04/06 02:04:17;;;;;;;26.60;10.43;;;17.10;99.90;;;;;;5027648;28;20234;-75
2022/04/06 02:06:42;;;;;;;23.17;10.38;;;14.20;99.90;;;;;;5024826;28;20083;-75
2022/04/06 02:09:08;;;;;;;26.50;10.75;;;14.40;99.90;;;;;;5022450;28;20358;-73
2022/04/06 02:11:35;;;;;;;23.95;10.40;;;15.10;99.90;;;;;;5039585;28;20045;-75
2022/04/06 02:14:03;;;;;;;26.13;9.93;;;16.40;99.90;;;;;;5038228;28;20032;-75
2022/04/06 02:16:29;;;;;;;21.17;9.13;;;14.00;99.90;;;;;;5042823;28;20141;-73
2022/04/06 02:18:55;;;;;;;18.90;9.90;;;13.60;99.90;;;;;;5061201;28;20255;-74
2022/04/06 02:21:20;;;;;;;22.48;9.45;;;17.00;99.90;;;;;;5043698;28;20025;-73
2022/04/06 02:23:46;;;;;;;19.27;8.88;;;13.80;99.90;;;;;;5044255;28;20064;-74
2022/04/06 02:26:12;;;;;;;16.67;8.27;;;15.60;99.90;;;;;;5026470;28;20067;-75
2022/04/06 02:28:37;;;;;;;23.48;9.80;;;15.50;99.90;;;;;;5044324;28;20029;-73
2022/04/06 02:31:03;;;;;;;21.13;8.95;;;16.50;99.90;;;;;;5047947;28;20062;-75
2022/04/06 02:33:29;;;;;;;20.35;7.82;;;14.40;99.90;;;;;;5027513;28;20030;-73
2022/04/06 02:35:54;;;;;;;18.17;7.65;;;15.90;99.90;;;;;;5030663;28;20053;-73
2022/04/06 02:38:20;;;;;;;21.02;7.95;;;16.40;99.90;;;;;;5042724;28;20110;-74
2022/04/06 02:40:46;;;;;;;19.85;7.63;;;15.40;99.90;;;;;;5027476;28;20043;-73
2022/04/06 02:43:12;;;;;;;17.73;7.43;;;15.90;99.90;;;;;;5041604;28;20065;-72
2022/04/06 02:45:38;;;;;;;22.20;8.32;;;14.20;99.90;;;;;;5059175;28;20104;-74
2022/04/06 02:48:05;;;;;;;15.88;6.53;;;14.00;99.90;;;;;;5031644;28;20083;-76
2022/04/06 02:50:31;;;;;;;18.27;7.65;;;14.70;99.90;;;;;;5043860;28;20239;-72
2022/04/06 02:52:57;;;;;;;16.08;7.00;;;12.90;99.90;;;;;;5076650;28;20271;-74
2022/04/06 02:55:23;;;;;;;13.38;6.22;;;13.80;99.90;;;;;;5076663;28;20037;-72
2022/04/06 02:57:48;;;;;;;18.77;7.72;;;13.50;99.90;;;;;;5041955;28;20021;-75
2022/04/06 03:00:15;;;;;;;13.60;5.82;;;12.40;99.90;;;;;;5027541;28;20029;-73
2022/04/06 03:02:46;;;;;;;10.32;5.82;;;14.60;99.90;;;;;;5059487;28;20037;-74
2022/04/06 03:05:12;;;;;;;13.75;5.03;;;13.00;99.90;;;;;;5027578;28;20382;-72
2022/04/06 03:07:41;;;;;;;16.60;4.97;;;14.70;99.90;;;;;;5007224;28;20109;-73
2022/04/06 03:10:08;;;;;;;9.55;4.60;;;14.50;99.90;;;;;;5010952;28;20116;-74
2022/04/06 03:12:34;;;;;;;15.20;4.60;;;12.40;99.90;;;;;;5042251;28;20108;-74
2022/04/06 03:14:59;;;;;;;13.35;4.75;;;13.50;99.90;;;;;;5023789;28;20041;-75
2022/04/06 03:17:25;;;;;;;12.93;4.40;;;13.80;99.90;;;;;;5039717;28;20075;-74
2022/04/06 03:19:51;;;;;;;12.38;4.57;;;12.80;99.90;;;;;;5074709;28;20137;-77
2022/04/06 03:22:19;;;;;;;16.33;4.10;;;14.30;99.90;;;;;;5060142;28;20091;-74
2022/04/06 03:24:46;;;;;;;8.32;4.20;;;12.80;99.90;;;;;;5042382;28;20036;-75
2022/04/06 03:27:11;;;;;;;10.05;4.03;;;11.50;99.90;;;;;;5043458;28;20324;-75
2022/04/06 03:29:37;;;;;;;8.57;3.08;;;12.00;99.90;;;;;;5038223;28;20112;-73
2022/04/06 03:32:03;;;;;;;8.60;3.92;;;12.90;99.90;;;;;;5051775;28;20040;-75
2022/04/06 03:34:29;;;;;;;8.63;3.70;;;13.30;99.90;;;;;;5052250;28;20046;-74
2022/04/06 03:36:55;;;;;;;9.52;4.63;;;11.90;99.90;;;;;;5046334;28;20056;-75
2022/04/06 03:39:20;;;;;;;10.63;4.00;;;12.60;99.90;;;;;;5050165;28;20030;-73
2022/04/06 03:41:46;;;;;;;12.23;3.97;;;11.50;99.90;;;;;;5036976;28;20225;-76
2022/04/06 03:44:12;;;;;;;12.48;5.07;;;11.40;99.90;;;;;;5040715;28;20036;-76
2022/04/06 03:46:37;;;;;;;9.77;3.80;;;13.00;99.90;;;;;;5026133;28;20044;-74
2022/04/06 03:49:03;;;;;;;11.38;4.68;;;11.20;99.90;;;;;;5042799;28;20037;-74
2022/04/06 03:51:29;;;;;;;9.68;4.38;;;12.90;99.90;;;;;;5034062;28;20050;-73
2022/04/06 03:53:55;;;;;;;10.73;4.53;;;12.70;99.90;;;;;;5026005;28;20029;-76
2022/04/06 03:56:21;;;;;;;8.68;4.05;;;11.90;99.90;;;;;;5041824;28;20426;-76
2022/04/06 03:58:46;;;;;;;8.23;4.00;;;11.40;99.90;;;;;;5009309;28;20030;-73
2022/04/06 04:01:12;;;;;;;11.20;4.53;;;10.70;99.90;;;;;;5043557;28;20029;-77
2022/04/06 04:03:38;;;;;;;9.57;4.03;;;11.10;99.90;;;;;;5025617;28;20041;-74
2022/04/06 04:06:03;;;;;;;16.80;5.80;;;10.50;99.90;;;;;;5025654;28;20030;-74
2022/04/06 04:08:29;;;;;;;10.20;4.55;;;11.10;99.90;;;;;;5033981;28;20080;-75
2022/04/06 04:10:55;;;;;;;13.43;4.95;;;12.70;99.90;;;;;;5042495;28;20029;-73
2022/04/06 04:13:20;;;;;;;18.90;7.22;;;10.60;99.90;;;;;;5045938;28;20040;-74
2022/04/06 04:15:46;;;;;;;14.73;6.00;;;11.20;99.90;;;;;;5052796;28;20033;-76
2022/04/06 04:18:12;;;;;;;11.25;5.40;;;11.30;99.90;;;;;;5025664;28;20040;-76
2022/04/06 04:20:40;;;;;;;14.95;7.10;;;12.70;99.90;;;;;;5043143;28;20212;-73
2022/04/06 04:23:05;;;;;;;13.18;6.38;;;11.20;99.90;;;;;;5026154;28;20392;-75
2022/04/06 04:25:31;;;;;;;14.90;6.93;;;13.20;99.90;;;;;;5019163;28;20033;-74
2022/04/06 04:27:57;;;;;;;21.52;7.78;;;10.80;99.90;;;;;;5009192;28;20033;-75
2022/04/06 04:30:22;;;;;;;17.45;7.07;;;11.00;99.90;;;;;;5042361;28;20259;-75
2022/04/06 04:32:48;;;;;;;18.35;7.55;;;11.90;99.90;;;;;;5058543;28;20052;-75
2022/04/06 04:35:14;;;;;;;17.00;7.53;;;11.10;99.90;;;;;;5055943;28;20049;-75
2022/04/06 04:37:40;;;;;;;21.75;7.40;;;11.70;99.90;;;;;;5057636;28;20293;-74
2022/04/06 04:40:06;;;;;;;18.35;7.50;;;13.50;99.90;;;;;;5042397;28;20028;-74
2022/04/06 04:42:32;;;;;;;19.90;9.25;;;13.00;99.90;;;;;;5074633;28;20041;-75
2022/04/06 04:44:59;;;;;;;20.83;8.85;;;11.90;99.90;;;;;;5040641;28;20036;-75
2022/04/06 04:47:25;;;;;;;20.33;8.13;;;14.20;99.90;;;;;;5009037;28;20080;-73
2022/04/06 04:49:51;;;;;;;18.92;9.35;;;13.80;99.90;;;;;;5041364;28;20033;-74
2022/04/06 04:52:16;;;;;;;21.55;8.40;;;12.10;99.90;;;;;;5058242;28;20087;-74
2022/04/06 04:54:42;;;;;;;26.98;10.38;;;13.50;99.90;;;;;;5004825;28;20046;-73
2022/04/06 04:57:08;;;;;;;23.98;8.85;;;11.70;99.90;;;;;;5021911;28;20022;-74
2022/04/06 04:59:33;;;;;;;24.38;9.32;;;13.90;99.90;;;;;;5054696;28;20084;-74
2022/04/06 05:01:59;;;;;;;17.98;8.43;;;13.40;99.90;;;;;;5029421;28;20021;-75
2022/04/06 05:04:25;;;;;;;20.05;8.90;;;13.10;99.90;;;;;;5007531;28;20143;-74
2022/04/06 05:06:50;;;;;;;21.23;9.15;;;13.10;99.90;;;;;;5023902;28;20036;-74
2022/04/06 05:09:17;;;;;;;19.23;7.97;;;12.50;99.90;;;;;;5041197;28;20319;-74
2022/04/06 05:11:43;;;;;;;18.88;9.45;;;11.80;99.90;;;;;;5018956;28;20151;-75
2022/04/06 05:14:09;;;;;;;20.92;8.63;;;12.30;99.90;;;;;;5040048;28;20076;-73
2022/04/06 05:16:35;;;;;;;19.55;8.05;;;12.80;99.90;;;;;;5038250;28;20108;-73
2022/04/06 05:19:01;;;;;;;21.88;8.75;;;14.60;99.90;;;;;;5043912;28;20033;-73
2022/04/06 05:21:27;;;;;;;14.02;7.63;;;12.50;99.90;;;;;;5077580;28;20033;-73
2022/04/06 05:23:52;;;;;;;19.42;8.63;;;14.80;99.90;;;;;;5052759;28;20070;-73
2022/04/06 05:26:18;;;;;;;19.73;7.88;;;12.60;99.90;;;;;;5046681;28;20029;-72
2022/04/06 05:28:44;;;;;;;17.30;7.90;;;14.00;99.90;;;;;;5043208;28;20032;-73
2022/04/06 05:31:10;;;;;;;24.40;8.23;;;12.70;99.90;;;;;;5077335;28;20082;-72
2022/04/06 05:33:35;;;;;;;15.10;7.32;;;11.70;99.90;;;;;;5031171;28;20100;-75
2022/04/06 05:36:02;;;;;;;19.73;7.65;;;12.00;99.90;;;;;;5052120;28;20050;-76
2022/04/06 05:38:28;;;;;;;21.98;7.18;;;12.70;99.90;;;;;;5023472;28;20045;-75
2022/04/06 05:40:54;;;;;;;14.27;6.55;;;11.90;99.90;;;;;;5041605;28;20068;-73
2022/04/06 05:43:19;;;;;;;19.90;7.57;;;13.70;99.90;;;;;;5024395;28;20033;-76
2022/04/06 05:45:45;;;;;;;20.23;7.72;;;11.80;99.90;;;;;;5039301;28;20118;-75
2022/04/06 05:48:11;;;;;;;18.45;7.97;;;14.20;99.90;;;;;;5023896;28;20060;-73
2022/04/06 05:50:38;;;;;;;20.80;6.95;;;12.60;99.90;;;;;;5022517;28;20038;-74
2022/04/06 05:53:03;;;;;;;19.77;6.70;;;12.50;99.90;;;;;;5039220;28;20037;-73
2022/04/06 05:55:29;;;;;;;21.55;8.70;;;12.50;99.90;;;;;;5040323;28;20037;-73
2022/04/06 05:57:55;;;;;;;18.98;7.13;;;12.70;99.90;;;;;;5023817;28;20037;-74
2022/04/06 06:00:21;;;;;;;19.83;7.80;;;13.10;99.90;;;;;;5040053;28;20193;-74
2022/04/06 06:02:46;;;;;;;14.75;7.90;;;14.20;99.90;;;;;;5007176;28;20316;-74
2022/04/06 06:05:12;;;;;;;18.38;7.32;;;12.60;99.90;;;;;;5007118;28;20045;-73
2022/04/06 06:07:38;;;;;;;15.38;7.00;;;14.20;99.90;;;;;;5037022;28;20037;-74
2022/04/06 06:10:04;;;;;;;13.98;6.43;;;12.30;99.90;;;;;;5023727;28;20034;-75
2022/04/06 06:12:31;;;;;;;12.30;5.82;;;14.20;99.90;;;;;;5038845;28;20057;-73
2022/04/06 06:14:57;;;;;;;18.88;6.72;;;12.40;99.90;;;;;;5022365;28;20025;-74
2022/04/06 06:17:23;;;;;;;11.65;6.30;;;14.90;99.90;;;;;;5007518;28;20041;-75
2022/04/06 06:19:48;;;;;;;14.93;6.88;;;14.60;99.90;;;;;;5039876;28;20100;-73
2022/04/06 06:22:14;;;;;;;18.63;7.53;;;15.00;99.90;;;;;;5000667;28;20035;-75
2022/04/06 06:24:40;;;;;;;14.02;6.82;;;14.00;99.90;;;;;;5035452;28;20315;-74
2022/04/06 06:27:06;;;;;;;15.32;6.90;;;13.30;99.90;;;;;;5068772;28;20029;-75
2022/04/06 06:29:32;;;;;;;13.75;6.60;;;12.90;99.90;;;;;;5020562;28;20041;-74
2022/04/06 06:31:58;;;;;;;16.15;7.47;;;13.80;99.90;;;;;;5040140;28;20045;-75
2022/04/06 06:34:24;;;;;;;16.55;6.82;;;14.60;99.90;;;;;;5022121;28;20267;-73
2022/04/06 06:36:50;;;;;;;18.58;7.32;;;15.00;99.90;;;;;;5022944;28;20077;-74
2022/04/06 06:39:15;;;;;;;13.40;6.63;;;14.70;99.90;;;;;;5017908;28;20052;-73
2022/04/06 06:41:43;;;;;;;16.20;7.70;;;14.90;99.90;;;;;;5002901;28;20109;-74
2022/04/06 06:44:08;;;;;;;14.90;7.07;;;14.90;99.90;;;;;;5021416;28;20092;-76
2022/04/06 06:46:34;;;;;;;16.95;7.07;;;13.50;99.90;;;;;;5039921;28;20048;-75
2022/04/06 06:49:03;;;;;;;11.68;6.57;;;15.40;99.90;;;;;;5039177;28;20044;-74
2022/04/06 06:51:32;;;;;;;13.57;6.38;;;13.70;99.90;;;;;;5039193;28;20218;-74
2022/04/06 06:53:59;;;;;;;17.13;6.97;;;13.10;99.90;;;;;;5037936;28;20053;-76
2022/04/06 06:56:25;;;;;;;12.70;6.10;;;15.90;99.90;;;;;;5032964;28;20602;-75
2022/04/06 06:58:51;;;;;;;12.50;6.72;;;15.80;99.90;;;;;;5000414;28;20299;-73
2022/04/06 07:01:17;;;;;;;12.38;5.97;;;13.60;99.90;;;;;;5039377;28;20379;-75
2022/04/06 07:03:43;;;;;;;10.43;5.28;;;15.80;99.90;;;;;;5023957;28;20021;-74
2022/04/06 07:06:09;;;;;;;14.75;6.78;;;15.90;99.90;;;;;;5041803;28;20349;-75
2022/04/06 07:08:34;;;;;;;18.73;5.75;;;13.70;99.90;;;;;;5057972;28;20082;-74
2022/04/06 07:11:00;;;;;;;11.20;4.97;;;15.60;99.90;;;;;;5058320;28;20033;-76
2022/04/06 07:13:26;;;;;;;10.50;4.65;;;14.70;99.90;;;;;;5043398;28;20230;-73
2022/04/06 07:15:52;;;;;;;9.52;4.85;;;14.60;99.90;;;;;;5042563;28;20056;-75
2022/04/06 07:18:20;;;;;;;9.90;4.28;;;13.90;99.90;;;;;;5064976;28;20041;-75
2022/04/06 07:20:45;;;;;;;9.88;5.55;;;16.20;99.90;;;;;;5030410;28;20032;-74
2022/04/06 07:23:12;;;;;;;10.77;4.30;;;16.00;99.90;;;;;;5042980;28;20324;-75
2022/04/06 07:25:39;;;;;;;11.85;4.38;;;16.20;99.90;;;;;;5042194;28;20078;-76
2022/04/06 07:28:06;;;;;;;7.15;4.35;;;15.60;99.90;;;;;;5058952;28;20351;-73
2022/04/06 07:30:31;;;;;;;10.68;4.63;;;14.40;99.90;;;;;;5060017;28;20037;-77
2022/04/06 07:32:58;;;;;;;9.23;4.40;;;16.40;99.90;;;;;;5042712;28;20075;-75
2022/04/06 07:35:24;;;;;;;10.77;4.25;;;16.10;99.90;;;;;;5075538;28;20053;-76
2022/04/06 07:37:51;;;;;;;12.77;4.90;;;14.30;99.90;;;;;;5075280;28;20066;-77
2022/04/06 07:40:22;;;;;;;9.50;3.92;;;14.60;99.90;;;;;;5025412;28;20041;-75
2022/04/06 07:42:49;;;;;;;8.35;4.00;;;15.10;99.90;;;;;;5076187;28;20034;-74
2022/04/06 07:45:17;;;;;;;10.80;4.50;;;14.70;99.90;;;;;;5075983;28;20272;-73
2022/04/06 07:47:44;;;;;;;10.45;4.45;;;16.60;99.90;;;;;;5060340;28;20256;-74
2022/04/06 07:50:12;;;;;;;12.82;4.50;;;13.60;99.90;;;;;;5058215;28;20350;-74
2022/04/06 07:52:39;;;;;;;12.70;4.75;;;14.50;99.90;;;;;;5042614;28;20045;-73
2022/04/06 07:55:06;;;;;;;9.32;4.90;;;14.10;99.90;;;;;;5075673;28;20090;-72
2022/04/06 07:57:33;;;;;;;10.30;4.75;;;15.90;99.90;;;;;;5041845;28;20155;-72
2022/04/06 08:00:05;;;;;;;11.43;4.05;;;14.10;99.90;;;;;;5058568;28;20076;-73
2022/04/06 08:02:31;;;;;;;11.27;5.10;;;15.60;99.90;;;;;;5057265;28;20021;-74
2022/04/06 08:04:57;;;;;;;7.75;4.10;;;14.30;99.90;;;;;;5058814;28;20030;-73
2022/04/06 08:07:23;;;;;;;8.50;4.68;;;16.10;99.90;;;;;;5041867;28;20036;-74
2022/04/06 08:09:48;;;;;;;10.00;4.30;;;14.10;99.90;;;;;;5046544;28;20307;-73
2022/04/06 08:12:14;;;;;;;10.50;4.78;;;14.50;99.90;;;;;;5061163;28;20048;-73
2022/04/06 08:14:40;;;;;;;14.10;4.78;;;14.60;99.90;;;;;;5009912;28;20029;-74
2022/04/06 08:17:06;;;;;;;14.32;4.90;;;16.60;99.90;;;;;;5025443;28;20132;-75
2022/04/06 08:19:32;;;;;;;15.55;4.88;;;14.70;99.90;;;;;;5041682;28;20033;-75
2022/04/06 08:21:57;;;;;;;13.65;5.13;;;16.20;99.90;;;;;;5042452;28;20084;-73
2022/04/06 08:24:23;;;;;;;10.00;4.88;;;16.90;99.90;;;;;;5021735;28;20362;-75
2022/04/06 08:26:49;;;;;;;13.40;4.78;;;17.10;99.90;;;;;;5006403;28;20392;-73
2022/04/06 08:29:14;;;;;;;14.57;4.75;;;14.10;99.90;;;;;;5034294;28;20120;-74
2022/04/06 08:31:40;;;;;;;10.23;4.90;;;17.00;99.90;;;;;;5031124;28;20108;-74
2022/04/06 08:34:06;;;;;;;11.27;4.80;;;14.50;99.90;;;;;;5041768;28;20072;-73
2022/04/06 08:36:35;;;;;;;16.13;4.85;;;14.60;99.90;;;;;;5018609;28;20045;-74
2022/04/06 08:39:02;;;;;;;7.85;4.10;;;14.20;99.90;;;;;;5017852;28;20045;-74
2022/04/06 08:41:30;;;;;;;11.68;4.32;;;16.70;99.90;;;;;;5034915;28;20038;-74
2022/04/06 08:43:59;;;;;;;13.02;4.18;;;16.40;99.90;;;;;;5033409;28;20396;-74
2022/04/06 08:46:25;;;;;;;9.02;5.15;;;14.40;99.90;;;;;;5034847;28;20132;-76
2022/04/06 08:48:52;;;;;;;8.07;4.10;;;16.40;99.90;;;;;;5018853;28;20041;-74
2022/04/06 08:51:19;;;;;;;11.93;4.93;;;16.90;99.90;;;;;;5018079;28;20069;-76
2022/04/06 08:53:46;;;;;;;12.38;4.38;;;16.40;99.90;;;;;;5034674;28;20037;-74
2022/04/06 08:56:12;;;;;;;10.73;3.70;;;16.60;99.90;;;;;;5012763;28;20037;-74
2022/04/06 08:58:39;;;;;;;13.25;4.93;;;15.60;99.90;;;;;;5024555;28;20050;-74
2022/04/06 09:01:05;;;;;;;12.27;4.55;;;16.40;99.90;;;;;;5024604;28;20037;-74
2022/04/06 09:03:31;;;;;;;9.68;4.55;;;16.40;99.90;;;;;;5067601;28;20076;-73
2022/04/06 09:06:05;;;;;;;14.85;4.13;;;15.80;99.90;;;;;;5034935;28;20044;-74
2022/04/06 09:08:39;;;;;;;10.30;3.65;;;16.70;99.90;;;;;;5034541;28;20053;-73
2022/04/06 09:11:12;;;;;;;10.20;4.65;;;16.40;99.90;;;;;;5005781;28;20141;-73
2022/04/06 09:13:39;;;;;;;9.35;3.90;;;15.10;99.90;;;;;;5016498;28;20050;-73
2022/04/06 09:16:09;;;;;;;12.18;3.42;;;13.80;99.90;;;;;;5031721;28;20382;-75
2022/04/06 09:18:41;;;;;;;10.68;4.28;;;13.80;99.90;;;;;;5067691;28;20048;-74
2022/04/06 09:21:09;;;;;;;11.75;3.80;;;16.10;99.90;;;;;;5067182;28;20262;-74
2022/04/06 09:23:35;;;;;;;7.13;3.72;;;16.20;99.90;;;;;;5033560;28;20041;-74
2022/04/06 09:26:10;;;;;;;10.48;3.22;;;15.10;99.90;;;;;;5017216;28;20033;-75
2022/04/06 09:28:44;;;;;;;7.00;3.75;;;15.30;99.90;;;;;;5033721;28;20343;-74
2022/04/06 09:31:17;;;;;;;13.77;4.57;;;13.50;99.90;;;;;;5049807;28;20346;-73
2022/04/06 09:34:00;;;;;;;10.60;4.10;;;13.50;99.90;;;;;;5050103;28;20032;-74
2022/04/06 09:36:31;;;;;;;10.98;3.78;;;15.00;99.90;;;;;;5066678;28;20061;-75
2022/04/06 09:38:57;;;;;;;11.43;3.88;;;13.00;99.90;;;;;;5066278;28;20272;-77
2022/04/06 09:41:25;;;;;;;13.77;4.15;;;15.50;99.90;;;;;;5067356;28;20437;-75
2022/04/06 09:43:53;;;;;;;13.07;3.58;;;15.00;99.90;;;;;;5033227;28;20324;-75
2022/04/06 09:49:19;;;;;;;11.18;4.40;;;13.10;99.90;;;;;;5013487;28;20045;-78
2022/04/06 09:51:53;;;;;;;10.35;4.22;;;13.00;99.90;;;;;;5014265;28;20293;-80
2022/04/06 09:54:20;;;;;;;11.70;4.50;;;13.60;99.90;;;;;;5005797;28;20251;-76
2022/04/06 09:56:46;;;;;;;22.02;4.63;;;14.20;99.90;;;;;;5013288;28;20042;-76
2022/04/06 09:59:16;;;;;;;11.02;4.10;;;13.40;99.90;;;;;;4997830;28;20061;-76
2022/04/06 10:01:46;;;;;;;10.88;3.90;;;13.50;99.90;;;;;;5023309;28;20060;-76
2022/04/06 10:04:13;;;;;;;10.70;4.13;;;13.50;99.90;;;;;;5033398;28;20037;-77
2022/04/06 10:06:41;;;;;;;14.35;4.85;;;11.90;99.90;;;;;;5034039;28;20556;-77
2022/04/06 10:09:14;;;;;;;12.43;3.72;;;11.30;99.90;;;;;;5017319;28;20427;-77
2022/04/06 10:11:40;;;;;;;10.82;3.88;;;12.40;99.90;;;;;;5016664;28;20067;-75
2022/04/06 10:14:09;;;;;;;12.38;3.78;;;13.20;99.90;;;;;;5033165;28;20054;-76
2022/04/06 10:16:36;;;;;;;9.15;4.25;;;12.60;99.90;;;;;;5067081;28;20045;-74
2022/04/06 10:19:13;;;;;;;10.68;4.03;;;12.80;99.90;;;;;;5017182;28;20034;-75
2022/04/06 10:21:43;;;;;;;16.70;4.63;;;11.50;99.90;;;;;;5066389;28;20044;-76
2022/04/06 10:24:39;;;;;;;10.10;4.47;;;13.70;99.90;;;;;;5067099;28;20243;-78
2022/04/06 10:27:16;;;;;;;15.18;4.75;;;11.50;99.90;;;;;;5016772;28;20268;-76
2022/04/06 10:30:22;;;;;;;8.82;4.05;;;11.70;99.90;;;;;;5017220;28;20391;-75
2022/04/06 10:32:49;;;;;;;9.02;4.22;;;12.10;99.90;;;;;;5017010;28;20328;-76
2022/04/06 10:35:35;;;;;;;11.70;4.25;;;13.50;99.90;;;;;;5050577;28;20342;-74
2022/04/06 10:38:04;;;;;;;13.73;5.00;;;13.60;99.90;;;;;;5045223;28;20263;-75
2022/04/06 10:40:52;;;;;;;12.02;4.70;;;12.80;99.90;;;;;;5054450;28;20240;-75
2022/04/06 10:43:38;;;;;;;16.27;4.78;;;11.20;99.90;;;;;;5036556;28;20037;-74
2022/04/06 10:46:15;;;;;;;9.10;4.70;;;12.60;99.90;;;;;;5036762;28;20045;-76
2022/04/06 10:49:10;;;;;;;11.77;5.32;;;11.10;99.90;;;;;;5037650;28;20270;-77
2022/04/06 10:51:37;;;;;;;12.23;4.85;;;12.40;99.90;;;;;;5036150;28;20072;-76
2022/04/06 10:54:12;;;;;;;15.85;5.03;;;11.20;99.90;;;;;;5035937;28;20077;-74
2022/04/06 10:56:46;;;;;;;;;;;11.70;99.90;;;;;;5037373;28;20127;-74
2022/04/06 10:59:19;;;;;;;17.10;5.55;;;11.10;99.90;;;;;;5036913;28;19921;-74
2022/04/06 11:01:48;;;;;;;13.65;5.88;;;14.60;99.90;;;;;;5052327;28;20073;-74
2022/04/06 11:04:25;;;;;;;10.93;5.35;;;11.40;99.90;;;;;;5032232;28;20448;-74
2022/04/06 11:06:56;;;;;;;11.20;4.65;;;11.90;99.90;;;;;;5035001;28;20104;-74
2022/04/06 11:12:25;;;;;;;15.52;6.88;;;15.30;99.90;;;;;;5051516;28;20112;-74
2022/04/06 11:15:10;;;;;;;17.80;5.47;;;12.40;99.90;;;;;;5028488;28;20088;-75
2022/04/06 11:17:44;;;;;;;16.00;6.70;;;12.80;99.90;;;;;;5017180;28;20560;-75
2022/04/06 11:20:11;;;;;;;18.88;6.03;;;14.00;99.90;;;;;;5037237;28;20048;-75
2022/04/06 11:22:39;;;;;;;20.92;6.00;;;15.20;99.90;;;;;;5053607;28;20037;-75
2022/04/06 11:25:11;;;;;;;18.73;6.28;;;13.00;99.90;;;;;;5069858;28;20045;-75
2022/04/06 11:27:39;;;;;;;21.30;5.60;;;14.00;99.90;;;;;;5035790;28;20095;-75
2022/04/06 11:30:12;;;;;;;17.17;5.45;;;14.70;99.90;;;;;;5001618;28;20049;-76
2022/04/06 11:32:45;;;;;;;18.08;6.05;;;13.50;99.90;;;;;;5070380;28;20072;-75
2022/04/06 11:35:11;;;;;;;16.23;5.63;;;14.10;99.90;;;;;;5034882;28;20057;-75
2022/04/06 11:37:47;;;;;;;16.23;5.53;;;16.00;99.90;;;;;;5036865;28;20049;-75
2022/04/06 11:40:20;;;;;;;17.08;5.20;;;15.30;99.90;;;;;;5035537;28;20232;-75
2022/04/06 11:42:53;;;;;;;14.57;5.60;;;14.60;99.90;;;;;;5069971;28;20249;-76
2022/04/06 11:45:22;;;;;;;18.20;5.82;;;16.40;99.90;;;;;;5051695;28;20115;-75
2022/04/06 11:47:59;;;;;;;14.27;5.47;;;17.30;99.90;;;;;;5018215;28;20337;-75
2022/04/06 11:50:32;;;;;;;19.35;5.32;;;15.10;99.90;;;;;;5019678;28;20080;-76
2022/04/06 11:53:06;;;;;;;16.60;5.65;;;16.10;99.90;;;;;;5069831;28;20309;-75
2022/04/06 11:55:47;;;;;;;16.15;5.57;;;16.00;99.90;;;;;;5002583;28;20360;-75
2022/04/06 11:58:36;;;;;;;13.93;4.50;;;14.80;99.90;;;;;;5018484;28;20080;-74
2022/04/06 12:01:10;;;;;;;11.80;4.63;;;14.10;99.90;;;;;;5069867;28;20037;-74
2022/04/06 12:03:38;;;;;;;11.05;4.35;;;15.60;99.90;;;;;;5053297;28;20045;-74
2022/04/06 12:06:07;;;;;;;11.57;4.15;;;16.10;99.90;;;;;;5051113;28;20056;-74
2022/04/06 12:08:34;;;;;;;13.38;4.72;;;15.80;99.90;;;;;;5068625;28;20041;-72
2022/04/06 12:11:00;;;;;;;12.80;5.00;;;13.80;99.90;;;;;;5069204;28;20049;-75
2022/04/06 12:13:29;;;;;;;13.98;4.30;;;13.10;99.90;;;;;;5019315;28;20048;-76
2022/04/06 12:15:56;;;;;;;11.07;3.80;;;12.80;99.90;;;;;;5060442;28;20080;-76
2022/04/06 12:18:23;;;;;;;9.52;3.40;;;12.60;99.90;;;;;;5067176;28;20048;-73
2022/04/06 12:20:50;;;;;;;7.32;2.90;;;12.80;99.90;;;;;;5068034;28;20095;-75
2022/04/06 12:23:20;;;;;;;11.50;3.22;;;12.70;99.90;;;;;;5028823;28;20038;-74
2022/04/06 12:25:47;;;;;;;12.18;3.92;;;14.20;99.90;;;;;;5036427;28;20037;-75
2022/04/06 12:28:14;;;;;;;11.48;3.42;;;13.10;99.90;;;;;;5017167;28;20325;-74
2022/04/06 12:31:01;;;;;;;9.90;3.65;;;13.30;99.90;;;;;;5008429;28;20037;-73
2022/04/06 12:33:43;;;;;;;9.15;3.63;;;12.10;99.90;;;;;;5044382;28;20044;-74
2022/04/06 12:36:24;;;;;;;8.15;2.80;;;12.50;99.90;;;;;;5033544;28;20068;-73
2022/04/06 12:39:02;;;;;;;9.43;3.00;;;13.30;99.90;;;;;;5018546;28;20239;-73
2022/04/06 12:41:34;;;;;;;8.77;2.72;;;13.10;99.90;;;;;;5021547;28;20041;-72
2022/04/06 12:44:02;;;;;;;11.98;3.05;;;12.20;99.90;;;;;;5041374;28;20042;-73
2022/04/06 12:46:55;;;;;;;9.50;3.17;;;12.50;99.90;;;;;;5008151;28;20033;-73
2022/04/06 12:49:26;;;;;;;12.63;3.67;;;12.20;99.90;;;;;;5030341;28;20037;-72
2022/04/06 12:52:07;;;;;;;8.80;3.50;;;13.50;99.90;;;;;;5034485;28;20087;-74
2022/04/06 12:54:36;;;;;;;8.77;2.70;;;12.60;99.90;;;;;;5066417;28;20068;-74